sensor_id;sensor_type;location;lat;lon;timestamp;temperature;humidity
6484;DHT22;3275;52.376;9.694;2023-12-20T00:01:54;8.00;99.90
6484;DHT22;3275;52.376;9.694;2023-12-20T00:04:21;8.00;99.90
6484;DHT22;3275;52.376;9.694;2023-12-20T00:06:48;8.00;99.90
6484;DHT22;3275;52.376;9.694;2023-12-20T00:09:14;8.00;99.90
6484;DHT22;3275;52.376;9.694;2023-12-20T00:11:41;7.90;99.90
6484;DHT22;3275;52.376;9.694;2023-12-20T00:14:08;7.90;99.90
6484;DHT22;3275;52.376;9.694;2023-12-20T00:16:36;7.90;99.90
6484;DHT22;3275;52.376;9.694;2023-12-20T00:19:02;7.90;99.90
6484;DHT22;3275;52.376;9.694;2023-12-20T00:21:29;7.80;99.90
6484;DHT22;3275;52.376;9.694;2023-12-20T00:23:55;7.80;99.90
6484;DHT22;3275;52.376;9.694;2023-12-20T00:26:22;7.80;99.90
6484;DHT22;3275;52.376;9.694;2023-12-20T00:28:48;7.70;99.90
6484;DHT22;3275;52.376;9.694;2023-12-20T00:31:15;7.70;99.90
6484;DHT22;3275;52.376;9.694;2023-12-20T00:33:43;7.70;99.90
6484;DHT22;3275;52.376;9.694;2023-12-20T00:36:11;7.70;99.90
6484;DHT22;3275;52.376;9.694;2023-12-20T00:38:38;7.70;99.90
6484;DHT22;3275;52.376;9.694;2023-12-20T00:41:04;7.70;99.90
6484;DHT22;3275;52.376;9.694;2023-12-20T00:43:31;7.70;99.90
6484;DHT22;3275;52.376;9.694;2023-12-20T00:45:58;7.70;99.90
6484;DHT22;3275;52.376;9.694;2023-12-20T00:48:25;7.70;99.90
6484;DHT22;3275;52.376;9.694;2023-12-20T00:50:53;7.70;99.90
6484;DHT22;3275;52.376;9.694;2023-12-20T00:53:20;7.60;99.90
6484;DHT22;3275;52.376;9.694;2023-12-20T00:55:46;7.60;99.90
6484;DHT22;3275;52.376;9.694;2023-12-20T00:58:15;7.50;99.90
6484;DHT22;3275;52.376;9.694;2023-12-20T01:00:42;7.50;99.90
6484;DHT22;3275;52.376;9.694;2023-12-20T01:03:09;7.50;99.90
6484;DHT22;3275;52.376;9.694;2023-12-20T01:05:36;7.50;99.90
6484;DHT22;3275;52.376;9.694;2023-12-20T01:08:04;7.50;99.90
6484;DHT22;3275;52.376;9.694;2023-12-20T01:10:31;7.50;99.90
6484;DHT22;3275;52.376;9.694;2023-12-20T01:12:57;7.50;99.90
6484;DHT22;3275;52.376;9.694;2023-12-20T01:15:24;7.60;99.90
6484;DHT22;3275;52.376;9.694;2023-12-20T01:17:51;7.50;99.90
6484;DHT22;3275;52.376;9.694;2023-12-20T01:20:18;7.50;99.90
6484;DHT22;3275;52.376;9.694;2023-12-20T01:22:45;7.50;99.90
6484;DHT22;3275;52.376;9.694;2023-12-20T01:25:13;7.50;99.90
6484;DHT22;3275;52.376;9.694;2023-12-20T01:27:40;7.50;99.90
6484;DHT22;3275;52.376;9.694;2023-12-20T01:30:07;7.50;99.90
6484;DHT22;3275;52.376;9.694;2023-12-20T01:32:34;7.40;99.90
6484;DHT22;3275;52.376;9.694;2023-12-20T01:35:00;7.40;99.90
6484;DHT22;3275;52.376;9.694;2023-12-20T01:37:27;7.40;99.90
6484;DHT22;3275;52.376;9.694;2023-12-20T01:39:54;7.40;99.90
6484;DHT22;3275;52.376;9.694;2023-12-20T01:42:22;7.50;99.90
6484;DHT22;3275;52.376;9.694;2023-12-20T01:44:49;7.50;99.90
6484;DHT22;3275;52.376;9.694;2023-12-20T01:47:15;7.40;99.90
6484;DHT22;3275;52.376;9.694;2023-12-20T01:49:43;7.40;99.90
6484;DHT22;3275;52.376;9.694;2023-12-20T01:52:10;7.40;99.90
6484;DHT22;3275;52.376;9.694;2023-12-20T01:54:37;7.40;99.90
6484;DHT22;3275;52.376;9.694;2023-12-20T01:57:05;7.30;99.90
6484;DHT22;3275;52.376;9.694;2023-12-20T01:59:34;7.30;99.90
6484;DHT22;3275;52.376;9.694;2023-12-20T02:02:02;7.30;99.90
6484;DHT22;3275;52.376;9.694;2023-12-20T02:04:29;7.20;99.90
6484;DHT22;3275;52.376;9.694;2023-12-20T02:06:56;7.30;99.90
6484;DHT22;3275;52.376;9.694;2023-12-20T02:09:24;7.40;99.90
6484;DHT22;3275;52.376;9.694;2023-12-20T02:11:50;7.30;99.90
6484;DHT22;3275;52.376;9.694;2023-12-20T02:14:17;7.30;99.90
6484;DHT22;3275;52.376;9.694;2023-12-20T02:16:45;7.20;99.90
6484;DHT22;3275;52.376;9.694;2023-12-20T02:19:14;7.30;99.90
6484;DHT22;3275;52.376;9.694;2023-12-20T02:21:42;7.30;99.90
6484;DHT22;3275;52.376;9.694;2023-12-20T02:24:08;7.30;99.90
6484;DHT22;3275;52.376;9.694;2023-12-20T02:26:35;7.30;99.90
6484;DHT22;3275;52.376;9.694;2023-12-20T02:29:02;7.30;99.90
6484;DHT22;3275;52.376;9.694;2023-12-20T02:31:29;7.20;99.90
6484;DHT22;3275;52.376;9.694;2023-12-20T02:33:55;7.20;99.90
6484;DHT22;3275;52.376;9.694;2023-12-20T02:36:22;7.40;99.90
6484;DHT22;3275;52.376;9.694;2023-12-20T02:38:50;7.30;99.90
6484;DHT22;3275;52.376;9.694;2023-12-20T02:41:16;7.40;99.90
6484;DHT22;3275;52.376;9.694;2023-12-20T02:43:43;7.30;99.90
6484;DHT22;3275;52.376;9.694;2023-12-20T02:46:10;7.20;99.90
6484;DHT22;3275;52.376;9.694;2023-12-20T02:48:37;7.20;99.90
6484;DHT22;3275;52.376;9.694;2023-12-20T02:51:03;7.30;99.90
6484;DHT22;3275;52.376;9.694;2023-12-20T02:53:30;7.20;99.90
6484;DHT22;3275;52.376;9.694;2023-12-20T02:55:58;7.20;99.90
6484;DHT22;3275;52.376;9.694;2023-12-20T02:58:24;7.10;99.90
6484;DHT22;3275;52.376;9.694;2023-12-20T03:00:51;7.10;99.90
6484;DHT22;3275;52.376;9.694;2023-12-20T03:03:18;7.20;99.90
6484;DHT22;3275;52.376;9.694;2023-12-20T03:05:45;7.20;99.90
6484;DHT22;3275;52.376;9.694;2023-12-20T03:08:12;7.10;99.90
6484;DHT22;3275;52.376;9.694;2023-12-20T03:10:38;7.10;99.90
6484;DHT22;3275;52.376;9.694;2023-12-20T03:13:06;7.00;99.90
6484;DHT22;3275;52.376;9.694;2023-12-20T03:15:33;7.00;99.90
6484;DHT22;3275;52.376;9.694;2023-12-20T03:18:00;7.00;99.90
6484;DHT22;3275;52.376;9.694;2023-12-20T03:20:26;7.10;99.90
6484;DHT22;3275;52.376;9.694;2023-12-20T03:22:53;7.10;99.90
6484;DHT22;3275;52.376;9.694;2023-12-20T03:25:20;7.20;99.90
6484;DHT22;3275;52.376;9.694;2023-12-20T03:27:46;7.20;99.90
6484;DHT22;3275;52.376;9.694;2023-12-20T03:30:14;7.00;99.90
6484;DHT22;3275;52.376;9.694;2023-12-20T03:32:41;7.00;99.90
6484;DHT22;3275;52.376;9.694;2023-12-20T03:35:07;7.00;99.90
6484;DHT22;3275;52.376;9.694;2023-12-20T03:40:56;7.10;99.90
6484;DHT22;3275;52.376;9.694;2023-12-20T03:43:23;7.10;99.90
6484;DHT22;3275;52.376;9.694;2023-12-20T03:45:50;7.00;99.90
6484;DHT22;3275;52.376;9.694;2023-12-20T03:48:17;7.00;99.90
6484;DHT22;3275;52.376;9.694;2023-12-20T03:50:44;7.10;99.90
6484;DHT22;3275;52.376;9.694;2023-12-20T03:53:10;7.10;99.90
6484;DHT22;3275;52.376;9.694;2023-12-20T03:55:37;7.20;99.90
6484;DHT22;3275;52.376;9.694;2023-12-20T03:58:03;7.20;99.90
6484;DHT22;3275;52.376;9.694;2023-12-20T04:00:30;7.10;99.90
6484;DHT22;3275;52.376;9.694;2023-12-20T04:02:58;7.20;99.90
6484;DHT22;3275;52.376;9.694;2023-12-20T04:05:24;7.20;99.90
6484;DHT22;3275;52.376;9.694;2023-12-20T04:07:51;7.20;99.90
6484;DHT22;3275;52.376;9.694;2023-12-20T04:10:17;7.30;99.90
6484;DHT22;3275;52.376;9.694;2023-12-20T04:12:44;7.20;99.90
6484;DHT22;3275;52.376;9.694;2023-12-20T04:15:10;7.10;99.90
6484;DHT22;3275;52.376;9.694;2023-12-20T04:17:37;7.10;99.90
6484;DHT22;3275;52.376;9.694;2023-12-20T04:20:07;7.10;99.90
6484;DHT22;3275;52.376;9.694;2023-12-20T04:22:33;7.10;99.90
6484;DHT22;3275;52.376;9.694;2023-12-20T04:25:00;7.00;99.90
6484;DHT22;3275;52.376;9.694;2023-12-20T04:27:27;7.00;99.90
6484;DHT22;3275;52.376;9.694;2023-12-20T04:29:54;7.10;99.90
6484;DHT22;3275;52.376;9.694;2023-12-20T04:32:20;7.10;99.90
6484;DHT22;3275;52.376;9.694;2023-12-20T04:34:47;7.10;99.90
6484;DHT22;3275;52.376;9.694;2023-12-20T04:37:15;7.10;99.90
6484;DHT22;3275;52.376;9.694;2023-12-20T04:39:41;7.20;99.90
6484;DHT22;3275;52.376;9.694;2023-12-20T04:42:08;7.30;99.90
6484;DHT22;3275;52.376;9.694;2023-12-20T04:44:35;7.30;99.90
6484;DHT22;3275;52.376;9.694;2023-12-20T04:47:01;7.20;99.90
6484;DHT22;3275;52.376;9.694;2023-12-20T04:49:28;7.30;99.90
6484;DHT22;3275;52.376;9.694;2023-12-20T04:51:55;7.20;99.90
6484;DHT22;3275;52.376;9.694;2023-12-20T04:54:23;7.10;99.90
6484;DHT22;3275;52.376;9.694;2023-12-20T04:56:49;7.20;99.90
6484;DHT22;3275;52.376;9.694;2023-12-20T04:59:15;7.10;99.90
6484;DHT22;3275;52.376;9.694;2023-12-20T05:01:42;7.10;99.90
6484;DHT22;3275;52.376;9.694;2023-12-20T05:04:08;7.10;99.90
6484;DHT22;3275;52.376;9.694;2023-12-20T05:06:35;7.10;99.90
6484;DHT22;3275;52.376;9.694;2023-12-20T05:09:01;7.10;99.90
6484;DHT22;3275;52.376;9.694;2023-12-20T05:11:29;7.20;99.90
6484;DHT22;3275;52.376;9.694;2023-12-20T05:13:56;7.30;99.90
6484;DHT22;3275;52.376;9.694;2023-12-20T05:16:23;7.20;99.90
6484;DHT22;3275;52.376;9.694;2023-12-20T05:18:49;7.30;99.90
6484;DHT22;3275;52.376;9.694;2023-12-20T05:21:17;7.30;99.90
6484;DHT22;3275;52.376;9.694;2023-12-20T05:23:44;7.40;99.90
6484;DHT22;3275;52.376;9.694;2023-12-20T05:26:11;7.40;99.90
6484;DHT22;3275;52.376;9.694;2023-12-20T05:28:39;7.40;99.90
6484;DHT22;3275;52.376;9.694;2023-12-20T05:31:05;7.40;99.90
6484;DHT22;3275;52.376;9.694;2023-12-20T05:33:32;7.30;99.90
6484;DHT22;3275;52.376;9.694;2023-12-20T05:35:59;7.10;99.90
6484;DHT22;3275;52.376;9.694;2023-12-20T05:38:25;7.10;99.90
6484;DHT22;3275;52.376;9.694;2023-12-20T05:40:52;7.00;99.90
6484;DHT22;3275;52.376;9.694;2023-12-20T05:43:18;7.00;99.90
6484;DHT22;3275;52.376;9.694;2023-12-20T05:45:46;7.00;99.90
6484;DHT22;3275;52.376;9.694;2023-12-20T05:48:13;7.00;99.90
6484;DHT22;3275;52.376;9.694;2023-12-20T05:50:39;7.00;99.90
6484;DHT22;3275;52.376;9.694;2023-12-20T05:53:06;7.10;99.90
6484;DHT22;3275;52.376;9.694;2023-12-20T05:55:33;7.10;99.90
6484;DHT22;3275;52.376;9.694;2023-12-20T05:57:59;7.20;99.90
6484;DHT22;3275;52.376;9.694;2023-12-20T06:00:26;7.10;99.90
6484;DHT22;3275;52.376;9.694;2023-12-20T06:02:54;7.10;99.90
6484;DHT22;3275;52.376;9.694;2023-12-20T06:05:20;7.10;99.90
6484;DHT22;3275;52.376;9.694;2023-12-20T06:07:47;7.10;99.90
6484;DHT22;3275;52.376;9.694;2023-12-20T06:10:16;7.10;99.90
6484;DHT22;3275;52.376;9.694;2023-12-20T06:12:43;7.00;99.90
6484;DHT22;3275;52.376;9.694;2023-12-20T06:15:10;7.00;99.90
6484;DHT22;3275;52.376;9.694;2023-12-20T06:17:36;7.00;99.90
6484;DHT22;3275;52.376;9.694;2023-12-20T06:20:06;6.90;99.90
6484;DHT22;3275;52.376;9.694;2023-12-20T06:22:34;7.00;99.90
6484;DHT22;3275;52.376;9.694;2023-12-20T06:25:01;7.00;99.90
6484;DHT22;3275;52.376;9.694;2023-12-20T06:27:28;7.00;99.90
6484;DHT22;3275;52.376;9.694;2023-12-20T06:29:55;7.10;99.90
6484;DHT22;3275;52.376;9.694;2023-12-20T06:32:21;7.10;99.90
6484;DHT22;3275;52.376;9.694;2023-12-20T06:34:49;7.10;99.90
6484;DHT22;3275;52.376;9.694;2023-12-20T06:37:17;7.10;99.90
6484;DHT22;3275;52.376;9.694;2023-12-20T06:39:44;7.00;99.90
6484;DHT22;3275;52.376;9.694;2023-12-20T06:42:12;7.00;99.90
6484;DHT22;3275;52.376;9.694;2023-12-20T06:44:39;7.10;99.90
6484;DHT22;3275;52.376;9.694;2023-12-20T06:47:06;7.20;99.90
6484;DHT22;3275;52.376;9.694;2023-12-20T06:49:32;7.20;99.90
6484;DHT22;3275;52.376;9.694;2023-12-20T06:51:59;7.10;99.90
6484;DHT22;3275;52.376;9.694;2023-12-20T06:54:27;7.00;99.90
6484;DHT22;3275;52.376;9.694;2023-12-20T06:56:53;7.00;99.90
6484;DHT22;3275;52.376;9.694;2023-12-20T06:59:20;6.90;99.90
6484;DHT22;3275;52.376;9.694;2023-12-20T07:01:48;6.90;99.90
6484;DHT22;3275;52.376;9.694;2023-12-20T07:04:15;6.90;99.90
6484;DHT22;3275;52.376;9.694;2023-12-20T07:06:45;6.90;99.90
6484;DHT22;3275;52.376;9.694;2023-12-20T07:09:13;6.90;99.90
6484;DHT22;3275;52.376;9.694;2023-12-20T07:11:41;7.00;99.90
6484;DHT22;3275;52.376;9.694;2023-12-20T07:14:07;7.00;99.90
6484;DHT22;3275;52.376;9.694;2023-12-20T07:16:34;6.90;99.90
6484;DHT22;3275;52.376;9.694;2023-12-20T07:19:01;7.00;99.90
6484;DHT22;3275;52.376;9.694;2023-12-20T07:21:28;7.00;99.90
6484;DHT22;3275;52.376;9.694;2023-12-20T07:23:55;7.00;99.90
6484;DHT22;3275;52.376;9.694;2023-12-20T07:26:21;7.00;99.90
6484;DHT22;3275;52.376;9.694;2023-12-20T07:28:50;7.10;99.90
6484;DHT22;3275;52.376;9.694;2023-12-20T07:31:16;7.00;99.90
6484;DHT22;3275;52.376;9.694;2023-12-20T07:33:43;7.00;99.90
6484;DHT22;3275;52.376;9.694;2023-12-20T07:36:09;7.00;99.90
6484;DHT22;3275;52.376;9.694;2023-12-20T07:38:37;7.00;99.90
6484;DHT22;3275;52.376;9.694;2023-12-20T07:41:03;7.00;99.90
6484;DHT22;3275;52.376;9.694;2023-12-20T07:43:30;7.00;99.90
6484;DHT22;3275;52.376;9.694;2023-12-20T07:46:04;7.00;99.90
6484;DHT22;3275;52.376;9.694;2023-12-20T07:48:30;7.00;99.90
6484;DHT22;3275;52.376;9.694;2023-12-20T07:50:57;7.00;99.90
6484;DHT22;3275;52.376;9.694;2023-12-20T07:53:24;6.80;99.90
6484;DHT22;3275;52.376;9.694;2023-12-20T07:55:50;6.80;99.90
6484;DHT22;3275;52.376;9.694;2023-12-20T07:58:17;6.70;99.90
6484;DHT22;3275;52.376;9.694;2023-12-20T08:00:44;6.70;99.90
6484;DHT22;3275;52.376;9.694;2023-12-20T08:03:12;6.80;99.90
6484;DHT22;3275;52.376;9.694;2023-12-20T08:05:39;6.80;99.90
6484;DHT22;3275;52.376;9.694;2023-12-20T08:08:06;6.80;99.90
6484;DHT22;3275;52.376;9.694;2023-12-20T08:10:33;6.80;99.90
6484;DHT22;3275;52.376;9.694;2023-12-20T08:12:59;6.80;99.90
6484;DHT22;3275;52.376;9.694;2023-12-20T08:15:26;6.70;99.90
6484;DHT22;3275;52.376;9.694;2023-12-20T08:17:53;6.80;99.90
6484;DHT22;3275;52.376;9.694;2023-12-20T08:20:20;6.80;99.90
6484;DHT22;3275;52.376;9.694;2023-12-20T08:22:47;6.80;99.90
6484;DHT22;3275;52.376;9.694;2023-12-20T08:25:14;6.90;99.90
6484;DHT22;3275;52.376;9.694;2023-12-20T08:27:41;6.90;99.90
6484;DHT22;3275;52.376;9.694;2023-12-20T08:30:09;7.00;99.90
6484;DHT22;3275;52.376;9.694;2023-12-20T08:32:36;7.00;99.90
6484;DHT22;3275;52.376;9.694;2023-12-20T08:35:03;7.00;99.90
6484;DHT22;3275;52.376;9.694;2023-12-20T08:37:31;7.00;99.90
6484;DHT22;3275;52.376;9.694;2023-12-20T08:39:58;7.10;99.90
6484;DHT22;3275;52.376;9.694;2023-12-20T08:42:24;7.10;99.90
6484;DHT22;3275;52.376;9.694;2023-12-20T08:44:56;7.10;99.90
6484;DHT22;3275;52.376;9.694;2023-12-20T08:47:23;7.10;99.90
6484;DHT22;3275;52.376;9.694;2023-12-20T08:49:49;7.10;99.90
6484;DHT22;3275;52.376;9.694;2023-12-20T08:52:16;7.20;99.90
6484;DHT22;3275;52.376;9.694;2023-12-20T08:54:44;7.20;99.90
6484;DHT22;3275;52.376;9.694;2023-12-20T08:57:10;7.10;99.90
6484;DHT22;3275;52.376;9.694;2023-12-20T08:59:37;7.20;99.90
6484;DHT22;3275;52.376;9.694;2023-12-20T09:02:04;7.10;99.90
6484;DHT22;3275;52.376;9.694;2023-12-20T09:04:31;7.20;99.90
6484;DHT22;3275;52.376;9.694;2023-12-20T09:06:59;7.30;99.90
6484;DHT22;3275;52.376;9.694;2023-12-20T09:09:26;7.30;99.90
6484;DHT22;3275;52.376;9.694;2023-12-20T09:11:54;7.30;99.90
6484;DHT22;3275;52.376;9.694;2023-12-20T09:14:21;7.30;99.90
6484;DHT22;3275;52.376;9.694;2023-12-20T09:16:48;7.30;99.90
6484;DHT22;3275;52.376;9.694;2023-12-20T09:19:16;7.30;99.90
6484;DHT22;3275;52.376;9.694;2023-12-20T09:21:43;7.20;99.90
6484;DHT22;3275;52.376;9.694;2023-12-20T09:24:09;7.30;99.90
6484;DHT22;3275;52.376;9.694;2023-12-20T09:26:36;7.30;99.90
6484;DHT22;3275;52.376;9.694;2023-12-20T09:29:06;7.30;99.90
6484;DHT22;3275;52.376;9.694;2023-12-20T09:31:36;7.30;99.90
6484;DHT22;3275;52.376;9.694;2023-12-20T09:34:03;7.30;99.90
6484;DHT22;3275;52.376;9.694;2023-12-20T09:36:29;7.30;99.90
6484;DHT22;3275;52.376;9.694;2023-12-20T09:38:59;7.30;99.90
6484;DHT22;3275;52.376;9.694;2023-12-20T09:41:27;7.30;99.90
6484;DHT22;3275;52.376;9.694;2023-12-20T09:43:54;7.40;99.90
6484;DHT22;3275;52.376;9.694;2023-12-20T09:46:26;7.50;99.90
6484;DHT22;3275;52.376;9.694;2023-12-20T09:48:55;7.50;99.90
6484;DHT22;3275;52.376;9.694;2023-12-20T09:51:22;7.50;99.90
6484;DHT22;3275;52.376;9.694;2023-12-20T09:53:50;7.50;99.90
6484;DHT22;3275;52.376;9.694;2023-12-20T09:56:17;7.60;99.90
6484;DHT22;3275;52.376;9.694;2023-12-20T09:58:44;7.60;99.90
6484;DHT22;3275;52.376;9.694;2023-12-20T10:01:11;7.70;99.90
6484;DHT22;3275;52.376;9.694;2023-12-20T10:03:39;7.70;99.90
6484;DHT22;3275;52.376;9.694;2023-12-20T10:06:07;7.70;99.90
6484;DHT22;3275;52.376;9.694;2023-12-20T10:08:33;7.60;99.90
6484;DHT22;3275;52.376;9.694;2023-12-20T10:11:01;7.70;99.90
6484;DHT22;3275;52.376;9.694;2023-12-20T10:13:29;7.70;99.90
6484;DHT22;3275;52.376;9.694;2023-12-20T10:15:56;7.70;99.90
6484;DHT22;3275;52.376;9.694;2023-12-20T10:18:23;7.70;99.90
6484;DHT22;3275;52.376;9.694;2023-12-20T10:20:50;7.70;99.90
6484;DHT22;3275;52.376;9.694;2023-12-20T10:23:17;7.80;99.90
6484;DHT22;3275;52.376;9.694;2023-12-20T10:25:57;7.80;99.90
6484;DHT22;3275;52.376;9.694;2023-12-20T10:28:23;7.80;99.90
6484;DHT22;3275;52.376;9.694;2023-12-20T10:30:53;7.80;99.90
6484;DHT22;3275;52.376;9.694;2023-12-20T10:33:24;7.70;99.90
6484;DHT22;3275;52.376;9.694;2023-12-20T10:35:52;7.80;99.90
6484;DHT22;3275;52.376;9.694;2023-12-20T10:38:19;7.80;99.90
6484;DHT22;3275;52.376;9.694;2023-12-20T10:40:46;7.80;99.90
6484;DHT22;3275;52.376;9.694;2023-12-20T10:43:13;7.70;99.90
6484;DHT22;3275;52.376;9.694;2023-12-20T10:45:41;7.80;99.90
6484;DHT22;3275;52.376;9.694;2023-12-20T10:48:10;7.80;99.90
6484;DHT22;3275;52.376;9.694;2023-12-20T10:50:38;7.70;99.90
6484;DHT22;3275;52.376;9.694;2023-12-20T10:53:07;7.70;99.90
6484;DHT22;3275;52.376;9.694;2023-12-20T10:55:33;7.80;99.90
6484;DHT22;3275;52.376;9.694;2023-12-20T10:58:01;7.60;99.90
6484;DHT22;3275;52.376;9.694;2023-12-20T11:00:29;7.60;99.90
6484;DHT22;3275;52.376;9.694;2023-12-20T11:03:00;7.60;99.90
6484;DHT22;3275;52.376;9.694;2023-12-20T11:05:46;7.60;99.90
6484;DHT22;3275;52.376;9.694;2023-12-20T11:08:22;7.60;99.90
6484;DHT22;3275;52.376;9.694;2023-12-20T11:10:57;7.70;99.90
6484;DHT22;3275;52.376;9.694;2023-12-20T11:13:28;7.60;99.90
6484;DHT22;3275;52.376;9.694;2023-12-20T11:15:56;7.60;99.90
6484;DHT22;3275;52.376;9.694;2023-12-20T11:18:29;7.60;99.90
6484;DHT22;3275;52.376;9.694;2023-12-20T11:20:56;7.60;99.90
6484;DHT22;3275;52.376;9.694;2023-12-20T11:23:29;7.60;99.90
6484;DHT22;3275;52.376;9.694;2023-12-20T11:25:57;7.60;99.90
6484;DHT22;3275;52.376;9.694;2023-12-20T11:28:24;7.60;99.90
6484;DHT22;3275;52.376;9.694;2023-12-20T11:30:52;7.50;99.90
6484;DHT22;3275;52.376;9.694;2023-12-20T11:33:23;7.50;99.90
6484;DHT22;3275;52.376;9.694;2023-12-20T11:35:50;7.40;99.90
6484;DHT22;3275;52.376;9.694;2023-12-20T11:38:19;7.30;99.90
6484;DHT22;3275;52.376;9.694;2023-12-20T11:40:50;7.30;99.90
6484;DHT22;3275;52.376;9.694;2023-12-20T11:43:29;7.30;99.90
6484;DHT22;3275;52.376;9.694;2023-12-20T11:46:02;7.20;99.90
6484;DHT22;3275;52.376;9.694;2023-12-20T11:48:30;7.00;99.90
6484;DHT22;3275;52.376;9.694;2023-12-20T11:50:57;6.90;99.90
6484;DHT22;3275;52.376;9.694;2023-12-20T11:53:23;6.80;99.90
6484;DHT22;3275;52.376;9.694;2023-12-20T11:55:51;6.80;99.90
6484;DHT22;3275;52.376;9.694;2023-12-20T11:58:18;6.70;99.90
6484;DHT22;3275;52.376;9.694;2023-12-20T12:00:45;6.60;99.90
6484;DHT22;3275;52.376;9.694;2023-12-20T12:03:14;6.50;99.90
6484;DHT22;3275;52.376;9.694;2023-12-20T12:05:41;6.50;99.90
6484;DHT22;3275;52.376;9.694;2023-12-20T12:08:08;6.40;99.90
6484;DHT22;3275;52.376;9.694;2023-12-20T12:10:34;6.30;99.90
6484;DHT22;3275;52.376;9.694;2023-12-20T12:13:02;6.40;99.90
6484;DHT22;3275;52.376;9.694;2023-12-20T12:15:29;6.40;99.90
6484;DHT22;3275;52.376;9.694;2023-12-20T12:17:56;6.30;99.90
6484;DHT22;3275;52.376;9.694;2023-12-20T12:20:24;6.30;99.90
6484;DHT22;3275;52.376;9.694;2023-12-20T12:22:58;6.30;99.90
6484;DHT22;3275;52.376;9.694;2023-12-20T12:25:26;6.30;99.90
6484;DHT22;3275;52.376;9.694;2023-12-20T12:27:52;6.30;99.90
6484;DHT22;3275;52.376;9.694;2023-12-20T12:30:20;6.40;99.90
6484;DHT22;3275;52.376;9.694;2023-12-20T12:32:47;6.30;99.90
6484;DHT22;3275;52.376;9.694;2023-12-20T12:35:14;6.50;99.90
6484;DHT22;3275;52.376;9.694;2023-12-20T12:37:41;6.60;99.90
6484;DHT22;3275;52.376;9.694;2023-12-20T12:40:10;6.60;99.90
6484;DHT22;3275;52.376;9.694;2023-12-20T12:42:37;6.60;99.90
6484;DHT22;3275;52.376;9.694;2023-12-20T12:45:04;6.70;99.90
6484;DHT22;3275;52.376;9.694;2023-12-20T12:47:33;6.60;99.90
6484;DHT22;3275;52.376;9.694;2023-12-20T12:50:00;6.60;99.90
6484;DHT22;3275;52.376;9.694;2023-12-20T12:52:26;6.60;99.90
6484;DHT22;3275;52.376;9.694;2023-12-20T12:54:52;6.60;99.90
6484;DHT22;3275;52.376;9.694;2023-12-20T12:57:19;6.60;99.90
6484;DHT22;3275;52.376;9.694;2023-12-20T12:59:46;6.50;99.90
6484;DHT22;3275;52.376;9.694;2023-12-20T13:02:13;6.60;99.90
6484;DHT22;3275;52.376;9.694;2023-12-20T13:04:41;6.50;99.90
6484;DHT22;3275;52.376;9.694;2023-12-20T13:07:09;6.60;99.90
6484;DHT22;3275;52.376;9.694;2023-12-20T13:09:36;6.50;99.90
6484;DHT22;3275;52.376;9.694;2023-12-20T13:12:04;6.60;99.90
6484;DHT22;3275;52.376;9.694;2023-12-20T13:14:32;6.50;99.90
6484;DHT22;3275;52.376;9.694;2023-12-20T13:17:00;6.60;99.90
6484;DHT22;3275;52.376;9.694;2023-12-20T13:19:26;6.60;99.90
6484;DHT22;3275;52.376;9.694;2023-12-20T13:21:54;6.60;99.90
6484;DHT22;3275;52.376;9.694;2023-12-20T13:24:21;6.60;99.90
6484;DHT22;3275;52.376;9.694;2023-12-20T13:26:47;6.60;99.90
6484;DHT22;3275;52.376;9.694;2023-12-20T13:29:14;6.60;99.90
6484;DHT22;3275;52.376;9.694;2023-12-20T13:31:40;6.70;99.90
6484;DHT22;3275;52.376;9.694;2023-12-20T13:34:07;6.70;99.90
6484;DHT22;3275;52.376;9.694;2023-12-20T13:36:34;6.80;99.90
6484;DHT22;3275;52.376;9.694;2023-12-20T13:39:03;6.80;99.90
6484;DHT22;3275;52.376;9.694;2023-12-20T13:41:30;6.90;99.90
6484;DHT22;3275;52.376;9.694;2023-12-20T13:43:57;7.00;99.90
6484;DHT22;3275;52.376;9.694;2023-12-20T13:46:23;7.00;99.90
6484;DHT22;3275;52.376;9.694;2023-12-20T13:48:50;7.00;99.90
6484;DHT22;3275;52.376;9.694;2023-12-20T13:51:16;6.90;99.90
6484;DHT22;3275;52.376;9.694;2023-12-20T13:53:43;6.90;99.90
6484;DHT22;3275;52.376;9.694;2023-12-20T13:56:11;6.90;99.90
6484;DHT22;3275;52.376;9.694;2023-12-20T13:58:38;7.00;99.90
6484;DHT22;3275;52.376;9.694;2023-12-20T14:01:05;7.00;99.90
6484;DHT22;3275;52.376;9.694;2023-12-20T14:03:32;7.10;99.90
6484;DHT22;3275;52.376;9.694;2023-12-20T14:05:58;7.10;99.90
6484;DHT22;3275;52.376;9.694;2023-12-20T14:08:25;6.90;99.90
6484;DHT22;3275;52.376;9.694;2023-12-20T14:10:52;7.10;99.90
6484;DHT22;3275;52.376;9.694;2023-12-20T14:13:20;7.10;99.90
6484;DHT22;3275;52.376;9.694;2023-12-20T14:15:47;7.10;99.90
6484;DHT22;3275;52.376;9.694;2023-12-20T14:18:14;7.10;99.90
6484;DHT22;3275;52.376;9.694;2023-12-20T14:20:42;7.10;99.90
6484;DHT22;3275;52.376;9.694;2023-12-20T14:23:09;7.20;99.90
6484;DHT22;3275;52.376;9.694;2023-12-20T14:25:36;7.20;99.90
6484;DHT22;3275;52.376;9.694;2023-12-20T14:28:03;7.10;99.90
6484;DHT22;3275;52.376;9.694;2023-12-20T14:30:31;7.20;99.90
6484;DHT22;3275;52.376;9.694;2023-12-20T14:32:59;7.20;99.90
6484;DHT22;3275;52.376;9.694;2023-12-20T14:35:25;7.20;99.90
6484;DHT22;3275;52.376;9.694;2023-12-20T14:37:52;7.20;99.90
6484;DHT22;3275;52.376;9.694;2023-12-20T14:40:19;7.20;99.90
6484;DHT22;3275;52.376;9.694;2023-12-20T14:42:47;7.10;99.90
6484;DHT22;3275;52.376;9.694;2023-12-20T14:45:14;7.10;99.90
6484;DHT22;3275;52.376;9.694;2023-12-20T14:47:43;7.10;99.90
6484;DHT22;3275;52.376;9.694;2023-12-20T14:50:09;7.10;99.90
6484;DHT22;3275;52.376;9.694;2023-12-20T14:52:37;7.20;99.90
6484;DHT22;3275;52.376;9.694;2023-12-20T14:55:04;7.20;99.90
6484;DHT22;3275;52.376;9.694;2023-12-20T14:57:31;7.20;99.90
6484;DHT22;3275;52.376;9.694;2023-12-20T14:59:58;7.30;99.90
6484;DHT22;3275;52.376;9.694;2023-12-20T15:02:26;7.20;99.90
6484;DHT22;3275;52.376;9.694;2023-12-20T15:04:54;7.30;99.90
6484;DHT22;3275;52.376;9.694;2023-12-20T15:07:23;7.30;99.90
6484;DHT22;3275;52.376;9.694;2023-12-20T15:09:49;7.20;99.90
6484;DHT22;3275;52.376;9.694;2023-12-20T15:12:16;7.20;99.90
6484;DHT22;3275;52.376;9.694;2023-12-20T15:14:44;7.20;99.90
6484;DHT22;3275;52.376;9.694;2023-12-20T15:17:12;7.20;99.90
6484;DHT22;3275;52.376;9.694;2023-12-20T15:19:41;7.10;99.90
6484;DHT22;3275;52.376;9.694;2023-12-20T15:22:09;7.20;99.90
6484;DHT22;3275;52.376;9.694;2023-12-20T15:24:36;7.20;99.90
6484;DHT22;3275;52.376;9.694;2023-12-20T15:27:08;7.20;99.90
6484;DHT22;3275;52.376;9.694;2023-12-20T15:29:35;7.20;99.90
6484;DHT22;3275;52.376;9.694;2023-12-20T15:32:03;7.10;99.90
6484;DHT22;3275;52.376;9.694;2023-12-20T15:34:31;7.20;99.90
6484;DHT22;3275;52.376;9.694;2023-12-20T15:36:58;7.10;99.90
6484;DHT22;3275;52.376;9.694;2023-12-20T15:39:26;7.10;99.90
6484;DHT22;3275;52.376;9.694;2023-12-20T15:41:54;7.20;99.90
6484;DHT22;3275;52.376;9.694;2023-12-20T15:44:20;7.20;99.90
6484;DHT22;3275;52.376;9.694;2023-12-20T15:46:47;7.10;99.90
6484;DHT22;3275;52.376;9.694;2023-12-20T15:49:13;7.20;99.90
6484;DHT22;3275;52.376;9.694;2023-12-20T15:51:43;7.10;99.90
6484;DHT22;3275;52.376;9.694;2023-12-20T15:54:10;7.10;99.90
6484;DHT22;3275;52.376;9.694;2023-12-20T15:56:38;7.00;99.90
6484;DHT22;3275;52.376;9.694;2023-12-20T15:59:06;7.00;99.90
6484;DHT22;3275;52.376;9.694;2023-12-20T16:01:33;7.00;99.90
6484;DHT22;3275;52.376;9.694;2023-12-20T16:04:01;7.00;99.90
6484;DHT22;3275;52.376;9.694;2023-12-20T16:06:27;6.90;99.90
6484;DHT22;3275;52.376;9.694;2023-12-20T16:08:54;6.90;99.90
6484;DHT22;3275;52.376;9.694;2023-12-20T16:11:21;6.80;99.90
6484;DHT22;3275;52.376;9.694;2023-12-20T16:13:49;6.90;99.90
6484;DHT22;3275;52.376;9.694;2023-12-20T16:16:16;6.80;99.90
6484;DHT22;3275;52.376;9.694;2023-12-20T16:18:43;6.70;99.90
6484;DHT22;3275;52.376;9.694;2023-12-20T16:21:09;6.60;99.90